x

Saginaw Bay Light #1, Mi (sblm4) Weather Station

4:50am - Sun 29th Mar 2015 All times are CDT. -5 hours from GMT.

  • Wind
    13mph, 14mph gusts
  • Air Temp 22°f
  • Sea Pressure 1022mb
  • Saginaw Bay Light #1, Mi
  • Saginaw Bay Light #1, Mi

More Historic Weather Station data

Upgrade to MSW Pro to gain access to the past 30 days of data for over 8000 Wavebouys and Weather Stations around the globe.

Join Pro

Comparision Forecast

View Surf forecast
   
Sun 03/29 4:50am 13 14 mph 1022mb 22f
4:40am 13 14 mph 1022mb 23f
4:30am 11 14 mph 1022.4mb 23f
4:20am 13 14 mph 1022.4mb 23f
4:10am 13 15 mph 1022.4mb 23f
4:00am 14 15 mph 1022.4mb 23f
3:50am 15 16 mph 1022.4mb 23f
3:40am 16 18 mph 1022.4mb 23f
3:30am 16 17 mph 1022.4mb 23f
3:20am 15 17 mph 1022.4mb 23f
3:10am 16 17 mph 1022.4mb 23f
3:00am 15
mph
1022.4mb 23f
2:50am 15 16 mph 1022.4mb 24f
2:40am 15 16 mph 1022.4mb 24f
2:30am 15 16 mph 1022.7mb 24f
2:20am 15 16 mph 1022.7mb 24f
2:10am 14 15 mph 1023mb 25f
2:00am 13
mph
1023mb 26f
1:50am 13
mph
1023mb 26f
1:40am 13 14 mph 1023.4mb 26f
1:30am 14
mph
1023.4mb 27f
1:20am 13 14 mph 1023.4mb 26f
1:10am 13 14 mph 1023.7mb 26f
1:00am 13 14 mph 1023.4mb 26f
12:50am 14 15 mph 1023.7mb 26f
12:40am 13 14 mph 1023.7mb 27f
12:30am 13 14 mph 1023.7mb 27f
12:20am 13 16 mph 1023.7mb 27f
12:10am 15 17 mph 1023.7mb 28f
12:00am 15 16 mph 1023.7mb 27f
Sat 03/28 11:50pm 15 16 mph 1023.7mb 27f
11:40pm 14 15 mph 1023.7mb 28f
11:30pm 15 17 mph 1023.7mb 28f
11:20pm 17 18 mph 1024mb 28f
11:10pm 17 18 mph 1024mb 28f
11:00pm 17
mph
1024mb 28f
10:50pm 16 17 mph 1024mb 28f
10:40pm 16
mph
1024mb 28f
10:30pm 15 16 mph 1024mb 29f
10:20pm 13 16 mph 1024.4mb 29f
10:10pm 14
mph
1024mb 29f
10:00pm 13 15 mph 1024mb 29f
9:50pm 13 14 mph 1024mb 29f
9:40pm 14 16 mph 1024mb 29f
9:30pm 15
mph
1023.7mb 29f
9:20pm 14 15 mph 1024mb 30f
9:10pm 14 15 mph 1023.7mb 30f
9:00pm 14 16 mph 1023.7mb 30f
8:50pm 15 16 mph 1023.7mb 30f
8:40pm 15 17 mph 1023.4mb 30f
8:30pm 16 17 mph 1023.7mb 30f
8:20pm 15 17 mph 1023.4mb 31f
8:10pm 15 17 mph 1023.7mb 31f
8:00pm 15 16 mph 1023.4mb 31f
7:50pm 16 17 mph 1023.4mb 31f
7:40pm 15 16 mph 1023.4mb 31f
7:30pm 13 15 mph 1023.4mb 31f
7:20pm 14 15 mph 1023.4mb 31f
7:10pm 14 15 mph 1023.4mb 31f
7:00pm 15
mph
1023.4mb 31f
6:50pm 14 15 mph 1023.4mb 31f
6:40pm 14 15 mph 1023.4mb 32f
6:30pm 14 15 mph 1023.4mb 32f
6:20pm 13 14 mph 1023.4mb 33f
6:10pm 14 15 mph 1023.4mb 33f
6:00pm 14
mph
1023.7mb 33f
5:50pm 11 13 mph 1023.7mb 33f
5:40pm 11 13 mph 1023.7mb 33f
5:30pm 11 14 mph 1023.4mb 33f
5:20pm 11 14 mph 1023.7mb 33f
5:10pm 13 14 mph 1023.4mb 33f
5:00pm 13 15 mph 1023.4mb 32f
4:50pm 11 13 mph 1023.7mb 32f
4:40pm 11 14 mph 1023.7mb 31f
4:30pm 11 13 mph 1023.7mb 31f
4:20pm 11 13 mph 1023.7mb 30f
4:10pm 11 13 mph 1023.7mb 30f
4:00pm 10 13 mph 1023.7mb 30f
3:50pm 10 11 mph 1024mb 30f
3:40pm 9 10 mph 1024mb 30f
3:30pm 10 11 mph 1024mb 29f
3:20pm 10 11 mph 1024mb 29f
3:10pm 10 11 mph 1024mb 29f
3:00pm 10 11 mph 1024.4mb 28f
2:50pm 10 13 mph 1024.4mb 28f
2:40pm 10 11 mph 1024.4mb 28f
2:30pm 10 13 mph 1024.4mb 28f
2:20pm 10 13 mph 1024.7mb 27f
2:10pm 10 13 mph 1024.7mb 27f
2:00pm 9 10 mph 1025.1mb 27f
1:50pm 8 10 mph 1025.1mb 27f
1:40pm 9 10 mph 1025.4mb 28f
1:30pm 8 10 mph 1025.4mb 27f
1:20pm 7 9 mph 1025.4mb 28f
1:10pm 7 8 mph 1025.4mb 28f
1:00pm 6 8 mph 1025.4mb 28f
12:50pm 6 8 mph 1025.4mb 27f
12:40pm 6 8 mph 1025.4mb 25f
12:30pm 6 8 mph 1025.4mb 28f
12:20pm 5 6 mph 1025.7mb 28f
12:10pm  -  3 mph 1025.7mb 29f
12:00pm 2 3 mph 1025.7mb 26f
11:50am  -  2 mph 1025.7mb 31f
11:40am 1 2 mph 1025.7mb 29f
11:30am 1 2 mph 1025.7mb 26f
11:20am  -  3 mph 1026.1mb 24f
11:10am 2 3 mph 1026.1mb 23f
11:00am 1 6 mph 1026.1mb 23f
10:50am 5 7 mph 1026.1mb 22f
10:40am 5 7 mph 1026.1mb 22f
10:30am 7 9 mph 1026.1mb 22f
10:20am 7 9 mph 1026.1mb 21f
10:10am 8 10 mph 1026.1mb 21f
10:00am 9 10 mph 1025.7mb 21f
9:50am 8 10 mph 1025.7mb 20f
9:40am 8 10 mph 1025.7mb 19f
9:30am 9 10 mph 1025.7mb 19f
9:20am 10
mph
1025.7mb 18f
9:10am 9 10 mph 1025.4mb 18f
9:00am 9 10 mph 1025.4mb 17f
8:50am 9 10 mph 1025.1mb 16f
8:40am 9 11 mph 1025.1mb 16f
8:30am 11 13 mph 1025.1mb 15f
8:20am 11 14 mph 1025.1mb 15f
8:10am 13 15 mph 1025.1mb 14f
8:00am 14 15 mph 1025.1mb 14f
7:50am 14 15 mph 1024.7mb 14f
7:40am 14 15 mph 1024.7mb 14f
7:30am 14 15 mph 1024.4mb 14f
7:20am 13 15 mph 1024.4mb 14f
7:10am 13 15 mph 1024.4mb 13f
7:00am 13 15 mph 1024mb 13f
6:50am 14 15 mph 1024mb 13f
6:40am 14 16 mph 1024mb 13f
6:30am 14 16 mph 1023.7mb 13f
6:20am 13 15 mph 1023.4mb 13f
6:10am 13 15 mph 1023mb 14f
6:00am 14 16 mph 1023mb 14f
5:50am 13 16 mph 1023mb 14f
5:40am 14 16 mph 1023mb 14f
5:30am 15 17 mph 1022.7mb 14f
5:20am 16 17 mph 1022.7mb 14f
5:10am 16 17 mph 1022.4mb 14f
5:00am 15 16 mph 1022.4mb 14f
4:50am 15 17 mph 1022mb 14f
4:40am 14 15 mph 1022mb 14f
4:30am 14 16 mph 1022mb 13f
4:20am 15 17 mph 1022mb 14f
4:10am 16 17 mph 1022mb 14f
4:00am 15 20 mph 1021.7mb 14f
3:50am 17 18 mph 1021.7mb 14f
3:40am 16 20 mph 1022mb 14f
3:30am 16 18 mph 1021.7mb 14f
3:20am 16 18 mph 1021.7mb 14f
3:10am 16 18 mph 1021.7mb 14f
3:00am 15 18 mph 1021.7mb 14f
2:50am 16 20 mph 1021.7mb 14f
2:40am 18 21 mph 1021.7mb 15f
2:30am 16 18 mph 1021.7mb 15f
2:20am 17 21 mph 1021.7mb 15f
2:10am 18 21 mph 1021.7mb 15f
2:00am 17 21 mph 1021.7mb 15f
1:50am 18 21 mph 1021.7mb 15f
1:40am 18 21 mph 1021.7mb 15f
1:30am 17 20 mph 1021.7mb 16f
1:20am 17 21 mph 1021.7mb 16f
1:10am 18 21 mph 1021.7mb 16f
1:00am 18 21 mph 1021.7mb 16f
12:50am 16 20 mph 1021.7mb 16f
12:40am 16 18 mph 1021.7mb 17f
12:30am 16 18 mph 1021.7mb 17f
12:20am 16 17 mph 1021.7mb 17f
12:10am 16 18 mph 1021.7mb 17f
12:00am 15 18 mph 1021.7mb 17f
Fri 03/27 11:50pm 16 20 mph 1021.7mb 17f
11:40pm 16 20 mph 1021.7mb 17f
11:30pm 17 18 mph 1021.7mb 17f
11:20pm 17 20 mph 1021.7mb 17f
11:10pm 14 15 mph 1021.7mb 17f
11:00pm 13 15 mph 1021.7mb 17f
10:50pm 13 15 mph 1021.7mb 17f
10:40pm 13 15 mph 1021.7mb 18f
10:30pm 14 16 mph 1021.7mb 18f
10:20pm 13 15 mph 1021.3mb 18f
10:10pm 14 16 mph 1021.3mb 18f
10:00pm 14 16 mph 1021.3mb 18f
9:50pm 15 17 mph 1021.3mb 18f
9:40pm 17 22 mph 1021.3mb 18f
9:30pm 18 21 mph 1021mb 18f
9:20pm 16 21 mph 1021mb 18f
9:10pm 18 22 mph 1021mb 18f
9:00pm 18 23 mph 1020.7mb 18f
8:50pm 20 23 mph 1020.7mb 18f
8:40pm 22 23 mph 1020.7mb 18f
8:30pm 21 23 mph 1020.3mb 19f
8:20pm 16 21 mph 1020.3mb 19f
8:10pm 17 22 mph 1020mb 20f
8:00pm 20 22 mph 1020mb 20f
7:50pm 18 21 mph 1020mb 20f
7:40pm 18 20 mph 1019.6mb 20f
7:30pm 18 20 mph 1019.3mb 20f
7:20pm 16 20 mph 1019.3mb 21f
7:10pm 16 20 mph 1019.3mb 21f
7:00pm 13 23 mph 1019.3mb 21f
6:50pm 20 21 mph 1019mb 20f
6:40pm 21 23 mph 1018.6mb 20f
6:30pm 20 22 mph 1019mb 20f
6:20pm 20 23 mph 1018.6mb 19f
6:10pm 21 24 mph 1018.6mb 19f
6:00pm 21 23 mph 1018.6mb 20f
5:50pm 21 24 mph 1018.3mb 19f
5:40pm 22 24 mph 1018.3mb 19f
5:30pm 21 23 mph 1018.3mb 20f
5:20pm 20 23 mph 1018.3mb 20f
5:10pm 21 23 mph 1018.3mb 19f
5:00pm 20 24 mph 1018.3mb 20f
4:50pm 21 26 mph 1017.9mb 19f
4:40pm 21 25 mph 1017.9mb 19f
4:30pm 18 24 mph 1018.3mb 19f
4:20pm 21 24 mph 1017.9mb 19f
4:10pm 21 24 mph 1017.9mb 19f
4:00pm 21 24 mph 1017.9mb 19f
3:50pm 20 25 mph 1017.9mb 19f
3:40pm 20 23 mph 1017.9mb 19f
3:30pm 20 23 mph 1017.9mb 19f
3:20pm 17 21 mph 1017.9mb 20f
3:10pm 15 17 mph 1017.9mb 20f
3:00pm 13 16 mph 1017.9mb 20f
2:50pm 13 20 mph 1017.9mb 20f
2:40pm 11 16 mph 1017.9mb 21f
2:30pm 11 16 mph 1017.9mb 21f
2:20pm 13 15 mph 1017.9mb 21f
2:10pm 9 11 mph 1018.3mb 21f
2:00pm 9 14 mph 1017.9mb 21f
1:50pm 11 15 mph 1017.9mb 21f
1:40pm 11 14 mph 1017.9mb 20f
1:30pm 13 15 mph 1017.9mb 21f
1:20pm 9 15 mph 1018.3mb 20f
1:10pm 11 14 mph 1017.9mb 20f
1:00pm 10 16 mph 1017.9mb 20f
12:50pm 10 16 mph 1017.9mb 20f
12:40pm 14 16 mph 1017.9mb 20f
12:30pm 10 17 mph 1017.9mb 20f
12:20pm 14 20 mph 1017.9mb 20f
12:10pm 15 18 mph 1017.9mb 19f
12:00pm 13 17 mph 1017.9mb 19f
11:50am 16 20 mph 1017.9mb 20f
11:40am 13 18 mph 1017.9mb 19f
11:30am 17 21 mph 1017.9mb 19f
11:20am 18 24 mph 1017.6mb 19f
11:10am 18 22 mph 1017.6mb 19f
11:00am 18 23 mph 1017.6mb 18f
10:50am 15 18 mph 1017.6mb 19f
10:40am 17 21 mph 1017.6mb 19f
10:30am 17 20 mph 1017.6mb 19f
10:20am 16 18 mph 1017.6mb 19f
10:10am 13 18 mph 1017.6mb 18f
10:00am 16 21 mph 1017.6mb 18f
9:50am 18 23 mph 1017.3mb 18f
9:40am 20 24 mph 1017.3mb 17f
9:30am 20 23 mph 1017.3mb 18f
9:20am 21 23 mph 1016.9mb 18f
9:10am 21 23 mph 1016.9mb 18f
9:00am 21 24 mph 1016.9mb 18f
8:50am 20 23 mph 1016.9mb 18f
8:40am 21 28 mph 1016.9mb 18f
8:30am 23 24 mph 1016.9mb 18f
8:20am 22 24 mph 1016.9mb 18f
8:10am 22 28 mph 1016.9mb 18f
8:00am 24 25 mph 1016.9mb 18f
7:50am 24 26 mph 1016.6mb 18f
7:40am 23 26 mph 1016.9mb 18f
7:30am 24 25 mph 1016.6mb 18f
7:20am 23 25 mph 1016.6mb 18f
7:10am 24 28 mph 1016.3mb 18f
7:00am 21 23 mph 1016.3mb 19f
6:50am 20 22 mph 1016.3mb 19f
6:40am 21 23 mph 1016.3mb 19f
6:30am 22 23 mph 1016.3mb 19f
6:20am 21 23 mph 1015.9mb 19f
6:10am 22 24 mph 1015.9mb 19f
6:00am 23 25 mph 1015.9mb 19f
5:50am 22 24 mph 1015.9mb 20f
5:40am 21 24 mph 1015.9mb 20f
5:30am 21 24 mph 1015.9mb 20f
5:20am 21 25 mph 1015.6mb 20f
5:10am 22 25 mph 1015.6mb 20f
5:00am 22 25 mph 1015.6mb 20f
4:50am 22 24 mph 1015.6mb 19f
4:40am 20 25 mph 1015.2mb 20f
4:30am 21 24 mph 1015.2mb 20f
4:20am 21 24 mph 1015.2mb 20f
4:10am 22 24 mph 1015.2mb 20f
4:00am 20 24 mph 1015.2mb 20f
3:50am 23 25 mph 1015.2mb 19f
3:40am 23 26 mph 1014.9mb 20f
3:30am 24 26 mph 1014.9mb 20f
3:20am 24 26 mph 1014.9mb 20f
3:10am 22 25 mph 1014.9mb 20f
3:00am 24 26 mph 1014.9mb 20f
2:50am 23 25 mph 1014.9mb 20f
2:40am 20 24 mph 1014.9mb 20f
2:30am 22 25 mph 1014.9mb 20f
2:20am 22 23 mph 1014.9mb 20f
2:10am 20 22 mph 1014.9mb 21f
2:00am 20 23 mph 1014.9mb 21f
1:50am 20 23 mph 1014.9mb 21f
1:40am 22 24 mph 1014.9mb 21f
1:30am 23 25 mph 1014.9mb 21f
1:20am 22 28 mph 1014.9mb 22f
1:10am 24 26 mph 1014.9mb 22f
1:00am 23 26 mph 1014.9mb 22f
12:50am 24 26 mph 1014.6mb 22f
12:40am 24 25 mph 1014.9mb 22f
12:30am 18 26 mph 1014.9mb 22f
12:20am 24 28 mph 1014.6mb 22f
12:10am 25 28 mph 1014.6mb 22f
12:00am 25 28 mph 1014.6mb 22f
Thu 03/26 11:50pm 23 28 mph 1014.6mb 23f
11:40pm 22 25 mph 1014.6mb 23f
11:30pm 22 26 mph 1014.6mb 23f
11:20pm 23 26 mph 1014.6mb 23f
11:10pm 23 29 mph 1014.6mb 24f
11:00pm 24 29 mph 1014.2mb 24f
10:50pm 23 26 mph 1014.2mb 24f
10:40pm 22 26 mph 1014.2mb 24f
10:30pm 23 28 mph 1014.2mb 24f
10:20pm 24 28 mph 1013.9mb 25f
10:10pm 24 29 mph 1013.9mb 25f
10:00pm 25 28 mph 1013.9mb 25f
9:50pm 23 25 mph 1013.9mb 26f
9:40pm 23 26 mph 1013.9mb 26f
9:30pm 24 28 mph 1013.5mb 26f
9:20pm 24 28 mph 1013.5mb 26f
9:10pm 26 29 mph 1013.5mb 26f
9:00pm 28 30 mph 1013.5mb 27f
8:50pm 24 26 mph 1013.5mb 27f
8:40pm 24 28 mph 1013.5mb 27f
8:30pm 24 28 mph 1013.5mb 28f
8:20pm 25 28 mph 1013.2mb 28f
8:10pm 25 29 mph 1013.2mb 29f
8:00pm 24 30 mph 1012.9mb 29f
7:50pm 28 29 mph 1012.9mb 29f
7:40pm 28 30 mph 1012.5mb 29f
7:30pm 26 31 mph 1012.5mb 30f
7:20pm 26 30 mph 1012.2mb 30f
7:10pm 25 30 mph 1012.2mb 30f
7:00pm 26 29 mph 1011.9mb 31f
6:50pm 24 28 mph 1011.9mb 31f
6:40pm 26 31 mph 1011.9mb 31f
6:30pm 26 29 mph 1011.5mb 32f
6:20pm 23 25 mph 1011.5mb 32f
6:10pm 21 24 mph 1011.5mb 33f
6:00pm 21 22 mph 1011.5mb 34f
5:50pm 20 25 mph 1011.2mb 34f
5:40pm 21 24 mph 1010.8mb 34f
5:30pm 21 23 mph 1011.2mb 34f
5:20pm 21 22 mph 1010.8mb 35f
5:10pm 18 23 mph 1010.8mb 35f
5:00pm 15 18 mph 1010.5mb 35f
4:50pm 16 17 mph 1010.5mb 35f
4:40pm 15 17 mph 1010.2mb 36f
4:30pm 17 21 mph 1009.8mb 37f
4:20pm 17 20 mph 1009.8mb 36f
4:10pm 17 18 mph 1009.5mb 36f
4:00pm 17 18 mph 1009.5mb 35f
3:50pm 15 16 mph 1009.5mb 35f
3:40pm 14 20 mph 1009.5mb 35f
3:30pm 14 15 mph 1009.1mb 36f
3:20pm 14 17 mph 1009.1mb 36f
3:10pm 16 17 mph 1009.1mb 36f
3:00pm 15 18 mph 1009.1mb 36f
2:50pm 18 20 mph 1009.5mb 36f
2:40pm 17 20 mph 1009.1mb 36f
2:30pm 17
mph
1009.1mb 36f
2:20pm 16 17 mph 1009.5mb 36f
2:10pm 14 15 mph 1009.5mb 36f
2:00pm 11 13 mph 1009.8mb 36f
1:50pm 13 14 mph 1009.8mb 37f
1:40pm 10 11 mph 1009.8mb 36f
1:30pm 9 10 mph 1009.8mb 36f
1:20pm 8 9 mph 1009.8mb 36f
1:10pm 6 8 mph 1010.2mb 35f
1:00pm 7 9 mph 1010.2mb 36f
12:50pm 8 10 mph 1010.2mb 36f
12:40pm 9 11 mph 1010.2mb 36f
12:30pm 9 11 mph 1010.2mb 36f
12:20pm 11 13 mph 1010.2mb 36f
12:10pm 11 14 mph 1010.2mb 36f
12:00pm 11 13 mph 1010.2mb 36f
11:50am 13 14 mph 1010.2mb 36f
11:40am 13 14 mph 1010.5mb 36f
11:30am 14 18 mph 1010.5mb 36f
11:20am 18 21 mph 1010.2mb 36f
11:10am 13 17 mph 1010.2mb 35f
11:00am 14 16 mph 1010.5mb 36f
10:50am 14 15 mph 1010.5mb 36f
10:40am 14 15 mph 1010.5mb 35f
10:30am 13 15 mph 1010.5mb 36f
10:20am 11 14 mph 1010.5mb 35f
10:10am 11 15 mph 1010.5mb 35f
10:00am 14 15 mph 1010.8mb 35f
9:50am 14 15 mph 1010.8mb 35f
9:40am 13 14 mph 1010.8mb 35f
9:30am 13
mph
1010.8mb 34f
9:20am 13 14 mph 1010.8mb 34f
9:10am 13 14 mph 1010.8mb 34f
9:00am 11 13 mph 1010.8mb 34f
8:50am 13
mph
1010.8mb 34f
8:40am 11 13 mph 1010.8mb 34f
8:30am 11 13 mph 1010.8mb 34f
8:20am 13
mph
1010.8mb 34f
8:10am 13
mph
1010.8mb 34f
8:00am 11 13 mph 1010.8mb 34f
7:50am 13 14 mph 1010.8mb 34f
7:40am 13
mph
1010.8mb 34f
7:30am 13 14 mph 1010.8mb 34f
7:20am 13 14 mph 1010.8mb 34f
7:10am 14 15 mph 1010.8mb 35f
7:00am 11 13 mph 1010.5mb 35f
6:50am 13 14 mph 1010.8mb 35f
6:40am 13 14 mph 1010.5mb 35f
6:30am 13
mph
1010.5mb 35f
6:20am 13
mph
1010.5mb 35f
6:10am 13
mph
1010.5mb 35f
6:00am 11 13 mph 1010.5mb 35f
5:50am 11 13 mph 1010.5mb 35f
5:40am 13
mph
1010.8mb 35f
5:30am 13
mph
1010.8mb 35f
5:20am 13
mph
1010.8mb 35f
5:10am 13 14 mph 1011.2mb 35f
5:00am 14 15 mph 1011.2mb 35f
4:50am 13 15 mph 1011.2mb 35f
4:40am 14 16 mph 1011.2mb 36f
4:30am 15 16 mph 1011.2mb 35f
4:20am 16
mph
1011.2mb 36f
4:10am 11 14 mph 1011.2mb 35f
4:00am 11 14 mph 1011.2mb 36f
3:50am 13 14 mph 1011.5mb 35f
3:40am 15 16 mph 1011.9mb 36f
3:30am 15 16 mph 1011.9mb 36f
3:20am 15 20 mph 1012.2mb 35f
3:10am 18 21 mph 1012.5mb 36f
3:00am 18 22 mph 1012.5mb 36f
2:50am 21 24 mph 1012.9mb 36f
2:40am 21 23 mph 1012.9mb 35f
2:30am 21 23 mph 1012.9mb 36f
2:20am 20 22 mph 1012.9mb 35f
2:10am 22 24 mph 1012.9mb 36f
2:00am 20 23 mph 1012.9mb 35f
1:50am 20 21 mph 1013.2mb 35f
1:40am 20 21 mph 1013.2mb 35f
1:30am 18 20 mph 1012.9mb 35f
1:20am 17 20 mph 1012.9mb 35f
1:10am 17 20 mph 1012.9mb 35f
1:00am 20 22 mph 1012.9mb 35f
12:50am 20 23 mph 1012.9mb 35f
12:40am 21 23 mph 1012.9mb 36f
12:30am 21 24 mph 1012.5mb 36f
12:20am 22 25 mph 1012.5mb 36f
12:10am 21 22 mph 1012.5mb 36f
12:00am 21 22 mph 1012.5mb 35f
Wed 03/25 11:50pm 21 23 mph 1012.5mb 36f
11:40pm 21 23 mph 1012.5mb 36f
11:30pm 21 22 mph 1012.5mb 35f
11:20pm 21 22 mph 1012.5mb 36f
11:10pm 21 23 mph 1012.5mb 36f
11:00pm 21 23 mph 1012.5mb 36f
10:50pm 22 23 mph 1012.5mb 36f
10:40pm 21 23 mph 1012.5mb 36f
10:30pm 18 21 mph 1012.5mb 35f
10:20pm 18 20 mph 1012.2mb 36f
10:10pm 18 21 mph 1012.5mb 36f
10:00pm 20 23 mph 1012.5mb 36f
9:50pm 21 22 mph 1012.5mb 37f
9:40pm 22 23 mph 1012.5mb 37f
9:30pm 20 22 mph 1012.5mb 37f
9:20pm 21 23 mph 1012.5mb 37f
9:10pm 20 22 mph 1012.5mb 37f
9:00pm 20 21 mph 1012.5mb 37f
8:50pm 20 22 mph 1012.5mb 37f
8:40pm 20 22 mph 1012.9mb 38f
8:30pm 21 25 mph 1012.9mb 38f
8:20pm 21 23 mph 1012.9mb 37f
8:10pm 17 20 mph 1012.9mb 37f
8:00pm 16 22 mph 1012.5mb 37f
7:50pm 18 21 mph 1012.5mb 37f
7:40pm 20 22 mph 1012.5mb 37f
7:30pm 21 26 mph 1012.2mb 37f
7:20pm 26 29 mph 1011.9mb 38f
7:10pm 24 30 mph 1011.9mb 37f
7:00pm 25 31 mph 1011.9mb 38f
6:50pm 26 29 mph 1011.5mb 37f
6:40pm 26 29 mph 1011.5mb 37f
6:30pm 28 30 mph 1011.5mb 37f
6:20pm 25 32 mph 1011.5mb 37f
6:10pm 29 32 mph 1011.2mb 37f
6:00pm 28 30 mph 1010.8mb 37f
5:50pm 28 31 mph 1010.8mb 37f
5:40pm 30 36 mph 1010.8mb 37f
5:30pm 28 34 mph 1010.5mb 37f
5:20pm 31 37 mph 1010.2mb 38f
5:10pm 32 40 mph 1009.8mb 38f
5:00pm 30 36 mph 1009.8mb 39f
4:50pm 33 37 mph 1009.1mb 39f
4:40pm 30 33 mph 1009.5mb 39f
4:30pm 28 32 mph 1009.1mb 39f
4:20pm 26 30 mph 1009.1mb 40f
4:10pm 26 29 mph 1009.1mb 40f
4:00pm 22 25 mph 1009.1mb 39f
3:50pm 23 26 mph 1009.1mb 39f
3:40pm 26 31 mph 1009.1mb 39f
3:30pm 30 32 mph 1008.8mb 40f
3:20pm 26 29 mph 1008.8mb 39f
3:10pm 25 29 mph 1008.8mb 39f
3:00pm 26 28 mph 1008.8mb 39f
2:50pm 25 31 mph 1008.5mb 39f
2:40pm 25 28 mph 1008.5mb 39f
2:30pm 21 25 mph 1008.5mb 38f
2:20pm 22 25 mph 1008.5mb 38f
2:10pm 23 25 mph 1008.5mb 38f
2:00pm 23 25 mph 1008.1mb 38f
1:50pm 24 26 mph 1008.1mb 38f
1:40pm 21 22 mph 1008.1mb 38f
1:30pm 18 21 mph 1008.1mb 37f
1:20pm 21 23 mph 1008.1mb 37f
1:10pm 21 24 mph 1007.8mb 37f
1:00pm 21 23 mph 1007.8mb 37f
12:50pm 18 22 mph 1007.5mb 36f
12:40pm 17 20 mph 1007.8mb 36f
12:30pm 16 18 mph 1007.8mb 36f
12:20pm 15 16 mph 1007.5mb 36f
12:10pm 14 15 mph 1007.5mb 35f
12:00pm 10 13 mph 1007.1mb 34f
11:50am 13 14 mph 1007.5mb 35f
11:40am 13 14 mph 1007.5mb 35f
11:30am 13 14 mph 1007.5mb 35f
11:20am 13 15 mph 1007.5mb 34f
11:10am 13 14 mph 1007.8mb 34f
11:00am 13 14 mph 1007.8mb 34f